sensor_id;sensor_type;location;lat;lon;timestamp;P1;durP1;ratioP1;P2;durP2;ratioP2
44832;SDS011;30569;51.252;9.830;2022-10-31T00:01:57;6.55;;;3.97;;
44832;SDS011;30569;51.252;9.830;2022-10-31T00:04:23;7.80;;;3.45;;
44832;SDS011;30569;51.252;9.830;2022-10-31T00:06:49;8.68;;;4.60;;
44832;SDS011;30569;51.252;9.830;2022-10-31T00:09:14;10.15;;;4.18;;
44832;SDS011;30569;51.252;9.830;2022-10-31T00:11:40;6.95;;;4.00;;
44832;SDS011;30569;51.252;9.830;2022-10-31T00:14:05;11.80;;;4.75;;
44832;SDS011;30569;51.252;9.830;2022-10-31T00:16:31;9.73;;;4.32;;
44832;SDS011;30569;51.252;9.830;2022-10-31T00:18:59;12.65;;;5.00;;
44832;SDS011;30569;51.252;9.830;2022-10-31T00:21:27;8.27;;;4.22;;
44832;SDS011;30569;51.252;9.830;2022-10-31T00:23:54;10.07;;;3.92;;
44832;SDS011;30569;51.252;9.830;2022-10-31T00:26:20;13.15;;;4.00;;
44832;SDS011;30569;51.252;9.830;2022-10-31T00:28:46;14.65;;;4.63;;
44832;SDS011;30569;51.252;9.830;2022-10-31T00:31:13;12.02;;;5.00;;
44832;SDS011;30569;51.252;9.830;2022-10-31T00:33:39;9.23;;;4.80;;
44832;SDS011;30569;51.252;9.830;2022-10-31T00:36:06;9.80;;;5.28;;
44832;SDS011;30569;51.252;9.830;2022-10-31T00:38:32;11.93;;;4.20;;
44832;SDS011;30569;51.252;9.830;2022-10-31T00:40:58;8.18;;;4.43;;
44832;SDS011;30569;51.252;9.830;2022-10-31T00:43:24;11.48;;;4.75;;
44832;SDS011;30569;51.252;9.830;2022-10-31T00:45:49;9.77;;;4.55;;
44832;SDS011;30569;51.252;9.830;2022-10-31T00:48:15;15.57;;;4.70;;
44832;SDS011;30569;51.252;9.830;2022-10-31T00:50:41;12.70;;;4.63;;
44832;SDS011;30569;51.252;9.830;2022-10-31T00:53:07;12.82;;;4.60;;
44832;SDS011;30569;51.252;9.830;2022-10-31T00:55:33;10.38;;;4.72;;
44832;SDS011;30569;51.252;9.830;2022-10-31T00:57:58;8.68;;;4.30;;
44832;SDS011;30569;51.252;9.830;2022-10-31T01:00:24;10.45;;;4.40;;
44832;SDS011;30569;51.252;9.830;2022-10-31T01:02:50;9.57;;;4.15;;
44832;SDS011;30569;51.252;9.830;2022-10-31T01:05:16;10.18;;;3.78;;
44832;SDS011;30569;51.252;9.830;2022-10-31T01:07:42;8.45;;;4.30;;
44832;SDS011;30569;51.252;9.830;2022-10-31T01:10:08;8.10;;;4.43;;
44832;SDS011;30569;51.252;9.830;2022-10-31T01:12:42;8.93;;;4.03;;
44832;SDS011;30569;51.252;9.830;2022-10-31T01:15:10;10.88;;;4.68;;
44832;SDS011;30569;51.252;9.830;2022-10-31T01:17:37;9.63;;;4.15;;
44832;SDS011;30569;51.252;9.830;2022-10-31T01:20:04;11.55;;;4.60;;
44832;SDS011;30569;51.252;9.830;2022-10-31T01:22:31;7.90;;;4.30;;
44832;SDS011;30569;51.252;9.830;2022-10-31T01:24:57;13.68;;;4.50;;
44832;SDS011;30569;51.252;9.830;2022-10-31T01:27:22;10.60;;;4.05;;
44832;SDS011;30569;51.252;9.830;2022-10-31T01:29:48;11.90;;;3.67;;
44832;SDS011;30569;51.252;9.830;2022-10-31T01:32:13;9.25;;;4.35;;
44832;SDS011;30569;51.252;9.830;2022-10-31T01:34:39;11.55;;;4.38;;
44832;SDS011;30569;51.252;9.830;2022-10-31T01:37:04;9.70;;;4.00;;
44832;SDS011;30569;51.252;9.830;2022-10-31T01:39:30;9.18;;;4.35;;
44832;SDS011;30569;51.252;9.830;2022-10-31T01:41:55;10.85;;;3.90;;
44832;SDS011;30569;51.252;9.830;2022-10-31T01:46:57;7.72;;;3.67;;
44832;SDS011;30569;51.252;9.830;2022-10-31T01:54:29;10.80;;;4.28;;
44832;SDS011;30569;51.252;9.830;2022-10-31T01:57:00;8.13;;;4.35;;
44832;SDS011;30569;51.252;9.830;2022-10-31T01:59:29;12.45;;;5.22;;
44832;SDS011;30569;51.252;9.830;2022-10-31T02:01:57;12.05;;;4.82;;
44832;SDS011;30569;51.252;9.830;2022-10-31T02:04:23;13.57;;;4.72;;
44832;SDS011;30569;51.252;9.830;2022-10-31T02:06:54;10.80;;;4.82;;
44832;SDS011;30569;51.252;9.830;2022-10-31T02:09:23;11.85;;;4.80;;
44832;SDS011;30569;51.252;9.830;2022-10-31T02:11:51;12.93;;;5.45;;
44832;SDS011;30569;51.252;9.830;2022-10-31T02:14:18;10.95;;;5.70;;
44832;SDS011;30569;51.252;9.830;2022-10-31T02:16:46;9.30;;;4.53;;
44832;SDS011;30569;51.252;9.830;2022-10-31T02:19:12;11.15;;;5.32;;
44832;SDS011;30569;51.252;9.830;2022-10-31T02:21:53;14.63;;;5.50;;
44832;SDS011;30569;51.252;9.830;2022-10-31T02:24:44;13.63;;;4.70;;
44832;SDS011;30569;51.252;9.830;2022-10-31T02:30:17;8.80;;;4.65;;
44832;SDS011;30569;51.252;9.830;2022-10-31T02:33:00;8.70;;;4.47;;
44832;SDS011;30569;51.252;9.830;2022-10-31T02:35:39;11.70;;;4.82;;
44832;SDS011;30569;51.252;9.830;2022-10-31T02:38:13;9.38;;;5.22;;
44832;SDS011;30569;51.252;9.830;2022-10-31T02:41:19;11.35;;;5.35;;
44832;SDS011;30569;51.252;9.830;2022-10-31T02:47:02;17.70;;;6.28;;
44832;SDS011;30569;51.252;9.830;2022-10-31T02:52:26;17.30;;;7.57;;
44832;SDS011;30569;51.252;9.830;2022-10-31T02:54:53;14.60;;;7.13;;
44832;SDS011;30569;51.252;9.830;2022-10-31T02:57:29;13.32;;;6.50;;
44832;SDS011;30569;51.252;9.830;2022-10-31T02:59:58;14.23;;;6.30;;
44832;SDS011;30569;51.252;9.830;2022-10-31T03:13:32;12.32;;;5.45;;
44832;SDS011;30569;51.252;9.830;2022-10-31T03:19:12;13.52;;;4.50;;
44832;SDS011;30569;51.252;9.830;2022-10-31T03:24:19;11.23;;;4.97;;
44832;SDS011;30569;51.252;9.830;2022-10-31T03:26:49;10.48;;;4.88;;
44832;SDS011;30569;51.252;9.830;2022-10-31T03:29:19;11.25;;;5.55;;
44832;SDS011;30569;51.252;9.830;2022-10-31T03:31:52;9.38;;;4.90;;
44832;SDS011;30569;51.252;9.830;2022-10-31T03:36:48;11.25;;;5.05;;
44832;SDS011;30569;51.252;9.830;2022-10-31T03:39:17;13.52;;;4.93;;
44832;SDS011;30569;51.252;9.830;2022-10-31T03:41:46;9.68;;;5.20;;
44832;SDS011;30569;51.252;9.830;2022-10-31T03:44:19;12.20;;;4.38;;
44832;SDS011;30569;51.252;9.830;2022-10-31T03:46:46;10.20;;;4.78;;
44832;SDS011;30569;51.252;9.830;2022-10-31T03:49:12;8.30;;;4.40;;
44832;SDS011;30569;51.252;9.830;2022-10-31T03:59:57;9.88;;;4.95;;
44832;SDS011;30569;51.252;9.830;2022-10-31T04:02:30;8.60;;;4.60;;
44832;SDS011;30569;51.252;9.830;2022-10-31T04:04:58;13.82;;;4.60;;
44832;SDS011;30569;51.252;9.830;2022-10-31T04:07:26;10.80;;;4.55;;
44832;SDS011;30569;51.252;9.830;2022-10-31T04:09:54;9.52;;;5.13;;
44832;SDS011;30569;51.252;9.830;2022-10-31T04:12:22;10.32;;;5.45;;
44832;SDS011;30569;51.252;9.830;2022-10-31T04:14:50;13.05;;;4.75;;
44832;SDS011;30569;51.252;9.830;2022-10-31T04:17:17;13.52;;;4.90;;
44832;SDS011;30569;51.252;9.830;2022-10-31T04:19:44;10.70;;;5.32;;
44832;SDS011;30569;51.252;9.830;2022-10-31T04:22:10;10.55;;;5.38;;
44832;SDS011;30569;51.252;9.830;2022-10-31T04:24:36;11.43;;;5.40;;
44832;SDS011;30569;51.252;9.830;2022-10-31T04:27:04;16.98;;;6.63;;
44832;SDS011;30569;51.252;9.830;2022-10-31T04:29:30;11.68;;;5.90;;
44832;SDS011;30569;51.252;9.830;2022-10-31T04:31:55;12.15;;;5.95;;
44832;SDS011;30569;51.252;9.830;2022-10-31T04:34:21;15.65;;;5.80;;
44832;SDS011;30569;51.252;9.830;2022-10-31T04:36:46;12.20;;;5.93;;
44832;SDS011;30569;51.252;9.830;2022-10-31T04:39:12;12.63;;;5.38;;
44832;SDS011;30569;51.252;9.830;2022-10-31T04:41:37;8.68;;;5.35;;
44832;SDS011;30569;51.252;9.830;2022-10-31T04:44:03;14.48;;;5.97;;
44832;SDS011;30569;51.252;9.830;2022-10-31T04:46:28;9.30;;;5.47;;
44832;SDS011;30569;51.252;9.830;2022-10-31T04:48:54;13.40;;;6.38;;
44832;SDS011;30569;51.252;9.830;2022-10-31T04:51:19;9.80;;;5.72;;
44832;SDS011;30569;51.252;9.830;2022-10-31T04:53:45;16.58;;;6.50;;
44832;SDS011;30569;51.252;9.830;2022-10-31T04:56:10;14.38;;;6.78;;
44832;SDS011;30569;51.252;9.830;2022-10-31T04:58:36;13.73;;;5.45;;
44832;SDS011;30569;51.252;9.830;2022-10-31T05:01:01;11.52;;;6.20;;
44832;SDS011;30569;51.252;9.830;2022-10-31T05:03:27;12.00;;;5.60;;
44832;SDS011;30569;51.252;9.830;2022-10-31T05:05:53;10.75;;;5.68;;
44832;SDS011;30569;51.252;9.830;2022-10-31T05:08:18;11.70;;;5.40;;
44832;SDS011;30569;51.252;9.830;2022-10-31T05:10:44;16.25;;;6.22;;
44832;SDS011;30569;51.252;9.830;2022-10-31T05:13:09;12.40;;;5.72;;
44832;SDS011;30569;51.252;9.830;2022-10-31T05:15:35;13.52;;;5.55;;
44832;SDS011;30569;51.252;9.830;2022-10-31T05:18:00;9.00;;;5.10;;
44832;SDS011;30569;51.252;9.830;2022-10-31T05:20:27;9.65;;;5.47;;
44832;SDS011;30569;51.252;9.830;2022-10-31T05:22:54;14.80;;;5.75;;
44832;SDS011;30569;51.252;9.830;2022-10-31T05:25:21;12.25;;;6.38;;
44832;SDS011;30569;51.252;9.830;2022-10-31T05:27:49;11.40;;;6.37;;
44832;SDS011;30569;51.252;9.830;2022-10-31T05:30:17;12.90;;;7.03;;
44832;SDS011;30569;51.252;9.830;2022-10-31T05:32:45;10.70;;;6.22;;
44832;SDS011;30569;51.252;9.830;2022-10-31T05:35:13;10.45;;;6.03;;
44832;SDS011;30569;51.252;9.830;2022-10-31T05:37:44;12.43;;;6.20;;
44832;SDS011;30569;51.252;9.830;2022-10-31T05:40:10;13.07;;;7.05;;
44832;SDS011;30569;51.252;9.830;2022-10-31T05:42:40;14.88;;;7.60;;
44832;SDS011;30569;51.252;9.830;2022-10-31T05:45:08;18.23;;;8.25;;
44832;SDS011;30569;51.252;9.830;2022-10-31T05:47:34;17.40;;;7.85;;
44832;SDS011;30569;51.252;9.830;2022-10-31T05:50:00;16.10;;;8.57;;
44832;SDS011;30569;51.252;9.830;2022-10-31T05:52:26;18.55;;;8.45;;
44832;SDS011;30569;51.252;9.830;2022-10-31T05:54:51;14.23;;;7.65;;
44832;SDS011;30569;51.252;9.830;2022-10-31T05:57:17;16.45;;;8.38;;
44832;SDS011;30569;51.252;9.830;2022-10-31T05:59:42;18.80;;;8.00;;
44832;SDS011;30569;51.252;9.830;2022-10-31T06:02:08;15.33;;;7.77;;
44832;SDS011;30569;51.252;9.830;2022-10-31T06:04:34;17.02;;;7.60;;
44832;SDS011;30569;51.252;9.830;2022-10-31T06:07:00;19.50;;;9.70;;
44832;SDS011;30569;51.252;9.830;2022-10-31T06:09:25;16.95;;;9.32;;
44832;SDS011;30569;51.252;9.830;2022-10-31T06:11:51;16.50;;;9.27;;
44832;SDS011;30569;51.252;9.830;2022-10-31T06:14:16;18.98;;;10.25;;
44832;SDS011;30569;51.252;9.830;2022-10-31T06:16:42;17.23;;;9.32;;
44832;SDS011;30569;51.252;9.830;2022-10-31T06:19:08;17.35;;;8.85;;
44832;SDS011;30569;51.252;9.830;2022-10-31T06:21:33;16.08;;;8.95;;
44832;SDS011;30569;51.252;9.830;2022-10-31T06:23:59;18.43;;;8.70;;
44832;SDS011;30569;51.252;9.830;2022-10-31T06:26:24;17.80;;;8.88;;
44832;SDS011;30569;51.252;9.830;2022-10-31T06:28:50;16.27;;;7.95;;
44832;SDS011;30569;51.252;9.830;2022-10-31T06:31:15;14.37;;;7.53;;
44832;SDS011;30569;51.252;9.830;2022-10-31T06:33:41;18.67;;;7.55;;
44832;SDS011;30569;51.252;9.830;2022-10-31T06:36:07;13.35;;;7.68;;
44832;SDS011;30569;51.252;9.830;2022-10-31T06:38:33;15.50;;;8.90;;
44832;SDS011;30569;51.252;9.830;2022-10-31T06:41:02;22.33;;;8.87;;
44832;SDS011;30569;51.252;9.830;2022-10-31T06:43:29;17.00;;;8.20;;
44832;SDS011;30569;51.252;9.830;2022-10-31T06:45:55;20.13;;;7.95;;
44832;SDS011;30569;51.252;9.830;2022-10-31T06:48:21;19.45;;;10.25;;
44832;SDS011;30569;51.252;9.830;2022-10-31T06:50:47;21.58;;;9.90;;
44832;SDS011;30569;51.252;9.830;2022-10-31T06:53:13;17.85;;;8.63;;
44832;SDS011;30569;51.252;9.830;2022-10-31T06:55:39;21.80;;;8.73;;
44832;SDS011;30569;51.252;9.830;2022-10-31T06:58:05;13.30;;;7.80;;
44832;SDS011;30569;51.252;9.830;2022-10-31T07:00:31;16.90;;;9.20;;
44832;SDS011;30569;51.252;9.830;2022-10-31T07:02:58;18.45;;;8.35;;
44832;SDS011;30569;51.252;9.830;2022-10-31T07:05:25;19.63;;;10.55;;
44832;SDS011;30569;51.252;9.830;2022-10-31T07:07:55;22.97;;;10.23;;
44832;SDS011;30569;51.252;9.830;2022-10-31T07:10:22;25.23;;;12.15;;
44832;SDS011;30569;51.252;9.830;2022-10-31T07:12:53;25.08;;;12.25;;
44832;SDS011;30569;51.252;9.830;2022-10-31T07:15:19;24.17;;;11.10;;
44832;SDS011;30569;51.252;9.830;2022-10-31T07:17:45;24.63;;;10.95;;
44832;SDS011;30569;51.252;9.830;2022-10-31T07:20:10;21.45;;;10.48;;
44832;SDS011;30569;51.252;9.830;2022-10-31T07:22:36;24.67;;;10.65;;
44832;SDS011;30569;51.252;9.830;2022-10-31T07:25:02;21.13;;;9.77;;
44832;SDS011;30569;51.252;9.830;2022-10-31T07:27:29;22.58;;;11.15;;
44832;SDS011;30569;51.252;9.830;2022-10-31T07:30:04;22.80;;;11.63;;
44832;SDS011;30569;51.252;9.830;2022-10-31T07:33:03;24.02;;;11.85;;
44832;SDS011;30569;51.252;9.830;2022-10-31T07:35:23;25.65;;;11.65;;
44832;SDS011;30569;51.252;9.830;2022-10-31T07:37:49;24.80;;;12.25;;
44832;SDS011;30569;51.252;9.830;2022-10-31T07:40:16;25.30;;;12.43;;
44832;SDS011;30569;51.252;9.830;2022-10-31T07:42:43;27.10;;;12.52;;
44832;SDS011;30569;51.252;9.830;2022-10-31T07:45:15;26.65;;;11.77;;
44832;SDS011;30569;51.252;9.830;2022-10-31T07:47:42;26.73;;;12.00;;
44832;SDS011;30569;51.252;9.830;2022-10-31T07:50:10;23.70;;;12.30;;
44832;SDS011;30569;51.252;9.830;2022-10-31T07:52:38;24.25;;;12.68;;
44832;SDS011;30569;51.252;9.830;2022-10-31T07:55:04;22.80;;;12.35;;
44832;SDS011;30569;51.252;9.830;2022-10-31T07:57:31;29.83;;;13.30;;
44832;SDS011;30569;51.252;9.830;2022-10-31T07:59:56;31.33;;;13.82;;
44832;SDS011;30569;51.252;9.830;2022-10-31T08:02:23;39.05;;;15.75;;
44832;SDS011;30569;51.252;9.830;2022-10-31T08:04:49;29.33;;;15.15;;
44832;SDS011;30569;51.252;9.830;2022-10-31T08:07:15;31.33;;;14.65;;
44832;SDS011;30569;51.252;9.830;2022-10-31T08:09:40;34.30;;;16.15;;
44832;SDS011;30569;51.252;9.830;2022-10-31T08:12:06;39.58;;;18.17;;
44832;SDS011;30569;51.252;9.830;2022-10-31T08:14:32;40.13;;;17.67;;
44832;SDS011;30569;51.252;9.830;2022-10-31T08:16:57;40.05;;;17.30;;
44832;SDS011;30569;51.252;9.830;2022-10-31T08:19:23;34.00;;;14.65;;
44832;SDS011;30569;51.252;9.830;2022-10-31T08:21:52;32.20;;;15.77;;
44832;SDS011;30569;51.252;9.830;2022-10-31T08:24:20;30.75;;;14.50;;
44832;SDS011;30569;51.252;9.830;2022-10-31T08:26:46;36.60;;;16.98;;
44832;SDS011;30569;51.252;9.830;2022-10-31T08:29:11;43.65;;;18.00;;
44832;SDS011;30569;51.252;9.830;2022-10-31T08:31:37;39.30;;;19.88;;
44832;SDS011;30569;51.252;9.830;2022-10-31T08:34:04;36.58;;;18.30;;
44832;SDS011;30569;51.252;9.830;2022-10-31T08:36:29;34.13;;;19.75;;
44832;SDS011;30569;51.252;9.830;2022-10-31T08:38:55;38.35;;;17.98;;
44832;SDS011;30569;51.252;9.830;2022-10-31T08:41:21;34.63;;;17.92;;
44832;SDS011;30569;51.252;9.830;2022-10-31T08:43:47;40.03;;;18.75;;
44832;SDS011;30569;51.252;9.830;2022-10-31T08:46:12;34.92;;;17.08;;
44832;SDS011;30569;51.252;9.830;2022-10-31T08:48:38;35.45;;;15.25;;
44832;SDS011;30569;51.252;9.830;2022-10-31T08:51:05;31.65;;;15.90;;
44832;SDS011;30569;51.252;9.830;2022-10-31T08:53:31;37.20;;;17.38;;
44832;SDS011;30569;51.252;9.830;2022-10-31T08:55:57;44.25;;;17.67;;
44832;SDS011;30569;51.252;9.830;2022-10-31T08:58:23;32.13;;;16.92;;
44832;SDS011;30569;51.252;9.830;2022-10-31T09:00:50;38.45;;;17.33;;
44832;SDS011;30569;51.252;9.830;2022-10-31T09:03:21;41.55;;;18.45;;
44832;SDS011;30569;51.252;9.830;2022-10-31T09:05:54;40.13;;;19.42;;
44832;SDS011;30569;51.252;9.830;2022-10-31T09:08:20;47.63;;;20.25;;
44832;SDS011;30569;51.252;9.830;2022-10-31T09:10:46;38.33;;;19.00;;
44832;SDS011;30569;51.252;9.830;2022-10-31T09:13:13;41.92;;;17.58;;
44832;SDS011;30569;51.252;9.830;2022-10-31T09:15:44;35.78;;;18.02;;
44832;SDS011;30569;51.252;9.830;2022-10-31T09:18:12;33.55;;;17.88;;
44832;SDS011;30569;51.252;9.830;2022-10-31T09:20:39;35.33;;;17.88;;
44832;SDS011;30569;51.252;9.830;2022-10-31T09:23:08;31.90;;;17.10;;
44832;SDS011;30569;51.252;9.830;2022-10-31T09:25:41;31.63;;;17.33;;
44832;SDS011;30569;51.252;9.830;2022-10-31T09:28:09;34.10;;;16.70;;
44832;SDS011;30569;51.252;9.830;2022-10-31T09:30:36;27.67;;;17.20;;
44832;SDS011;30569;51.252;9.830;2022-10-31T09:33:06;30.15;;;17.13;;
44832;SDS011;30569;51.252;9.830;2022-10-31T09:35:34;33.55;;;17.15;;
44832;SDS011;30569;51.252;9.830;2022-10-31T09:38:01;31.50;;;16.83;;
44832;SDS011;30569;51.252;9.830;2022-10-31T09:40:36;27.70;;;15.43;;
44832;SDS011;30569;51.252;9.830;2022-10-31T09:46:04;32.78;;;16.02;;
44832;SDS011;30569;51.252;9.830;2022-10-31T09:51:08;29.08;;;16.17;;
44832;SDS011;30569;51.252;9.830;2022-10-31T09:53:39;26.10;;;15.02;;
44832;SDS011;30569;51.252;9.830;2022-10-31T09:56:10;37.13;;;15.18;;
44832;SDS011;30569;51.252;9.830;2022-10-31T09:58:42;29.37;;;14.73;;
44832;SDS011;30569;51.252;9.830;2022-10-31T10:01:58;24.73;;;14.35;;
44832;SDS011;30569;51.252;9.830;2022-10-31T10:06:44;23.67;;;12.82;;
44832;SDS011;30569;51.252;9.830;2022-10-31T10:09:14;30.13;;;14.02;;
44832;SDS011;30569;51.252;9.830;2022-10-31T10:12:01;25.52;;;14.55;;
44832;SDS011;30569;51.252;9.830;2022-10-31T10:15:06;25.50;;;12.93;;
44832;SDS011;30569;51.252;9.830;2022-10-31T10:17:42;25.15;;;12.68;;
44832;SDS011;30569;51.252;9.830;2022-10-31T10:26:21;27.63;;;12.70;;
44832;SDS011;30569;51.252;9.830;2022-10-31T10:28:52;25.38;;;12.50;;
44832;SDS011;30569;51.252;9.830;2022-10-31T10:31:33;24.05;;;11.07;;
44832;SDS011;30569;51.252;9.830;2022-10-31T10:36:37;26.30;;;11.70;;
44832;SDS011;30569;51.252;9.830;2022-10-31T10:41:46;27.42;;;11.65;;
44832;SDS011;30569;51.252;9.830;2022-10-31T10:44:33;21.88;;;12.32;;
44832;SDS011;30569;51.252;9.830;2022-10-31T10:47:23;25.63;;;11.48;;
44832;SDS011;30569;51.252;9.830;2022-10-31T10:50:19;24.35;;;11.93;;
44832;SDS011;30569;51.252;9.830;2022-10-31T10:58:19;22.63;;;10.65;;
44832;SDS011;30569;51.252;9.830;2022-10-31T11:00:46;22.88;;;11.15;;
44832;SDS011;30569;51.252;9.830;2022-10-31T11:03:16;24.42;;;11.75;;
44832;SDS011;30569;51.252;9.830;2022-10-31T11:05:55;21.05;;;11.95;;
44832;SDS011;30569;51.252;9.830;2022-10-31T11:08:27;25.55;;;12.63;;
44832;SDS011;30569;51.252;9.830;2022-10-31T11:13:27;23.92;;;11.70;;
44832;SDS011;30569;51.252;9.830;2022-10-31T11:18:29;21.65;;;12.00;;
44832;SDS011;30569;51.252;9.830;2022-10-31T11:20:57;21.77;;;12.60;;
44832;SDS011;30569;51.252;9.830;2022-10-31T11:23:26;22.65;;;13.50;;
44832;SDS011;30569;51.252;9.830;2022-10-31T11:26:00;22.02;;;11.80;;
44832;SDS011;30569;51.252;9.830;2022-10-31T11:28:29;23.35;;;11.30;;
44832;SDS011;30569;51.252;9.830;2022-10-31T11:31:05;30.65;;;13.20;;
44832;SDS011;30569;51.252;9.830;2022-10-31T11:36:02;20.52;;;11.57;;
44832;SDS011;30569;51.252;9.830;2022-10-31T11:38:41;21.70;;;12.35;;
44832;SDS011;30569;51.252;9.830;2022-10-31T11:41:12;25.88;;;13.20;;
44832;SDS011;30569;51.252;9.830;2022-10-31T11:43:45;23.20;;;12.23;;
44832;SDS011;30569;51.252;9.830;2022-10-31T11:46:19;23.23;;;13.07;;
44832;SDS011;30569;51.252;9.830;2022-10-31T11:48:57;24.77;;;12.00;;
44832;SDS011;30569;51.252;9.830;2022-10-31T11:51:29;23.30;;;12.55;;
44832;SDS011;30569;51.252;9.830;2022-10-31T11:54:00;23.85;;;13.25;;
44832;SDS011;30569;51.252;9.830;2022-10-31T11:56:27;18.58;;;11.30;;
44832;SDS011;30569;51.252;9.830;2022-10-31T11:59:04;24.80;;;11.43;;
44832;SDS011;30569;51.252;9.830;2022-10-31T12:01:39;23.40;;;11.10;;
44832;SDS011;30569;51.252;9.830;2022-10-31T12:04:11;19.88;;;10.90;;
44832;SDS011;30569;51.252;9.830;2022-10-31T12:06:38;16.83;;;9.85;;
44832;SDS011;30569;51.252;9.830;2022-10-31T12:17:03;21.27;;;10.25;;
44832;SDS011;30569;51.252;9.830;2022-10-31T12:31:18;16.00;;;8.70;;
44832;SDS011;30569;51.252;9.830;2022-10-31T12:33:54;15.00;;;8.43;;
44832;SDS011;30569;51.252;9.830;2022-10-31T12:43:17;14.27;;;9.00;;
44832;SDS011;30569;51.252;9.830;2022-10-31T12:51:19;13.45;;;7.38;;
44832;SDS011;30569;51.252;9.830;2022-10-31T12:59:24;20.02;;;9.35;;
44832;SDS011;30569;51.252;9.830;2022-10-31T13:10:19;20.65;;;9.75;;
44832;SDS011;30569;51.252;9.830;2022-10-31T13:12:50;22.85;;;9.57;;
44832;SDS011;30569;51.252;9.830;2022-10-31T13:15:23;20.17;;;10.32;;
44832;SDS011;30569;51.252;9.830;2022-10-31T13:17:56;23.52;;;10.20;;
44832;SDS011;30569;51.252;9.830;2022-10-31T13:20:26;18.10;;;8.90;;
44832;SDS011;30569;51.252;9.830;2022-10-31T13:23:04;20.77;;;9.38;;
44832;SDS011;30569;51.252;9.830;2022-10-31T13:25:40;16.83;;;9.05;;
44832;SDS011;30569;51.252;9.830;2022-10-31T13:28:12;16.92;;;8.27;;
44832;SDS011;30569;51.252;9.830;2022-10-31T13:30:48;20.00;;;9.25;;
44832;SDS011;30569;51.252;9.830;2022-10-31T13:35:53;22.10;;;9.32;;
44832;SDS011;30569;51.252;9.830;2022-10-31T13:38:22;23.80;;;9.90;;
44832;SDS011;30569;51.252;9.830;2022-10-31T13:48:57;21.02;;;9.40;;
44832;SDS011;30569;51.252;9.830;2022-10-31T13:51:29;22.48;;;8.80;;
44832;SDS011;30569;51.252;9.830;2022-10-31T13:54:00;19.63;;;9.57;;
44832;SDS011;30569;51.252;9.830;2022-10-31T13:56:31;21.80;;;9.90;;
44832;SDS011;30569;51.252;9.830;2022-10-31T14:01:24;16.60;;;9.40;;
44832;SDS011;30569;51.252;9.830;2022-10-31T14:07:06;21.85;;;9.80;;
44832;SDS011;30569;51.252;9.830;2022-10-31T14:09:38;24.23;;;9.05;;
44832;SDS011;30569;51.252;9.830;2022-10-31T14:12:08;18.50;;;8.95;;
44832;SDS011;30569;51.252;9.830;2022-10-31T14:14:47;21.17;;;9.98;;
44832;SDS011;30569;51.252;9.830;2022-10-31T14:17:16;20.00;;;8.43;;
44832;SDS011;30569;51.252;9.830;2022-10-31T14:22:28;16.52;;;8.50;;
44832;SDS011;30569;51.252;9.830;2022-10-31T14:24:58;16.15;;;7.55;;
44832;SDS011;30569;51.252;9.830;2022-10-31T14:29:49;17.77;;;7.68;;
44832;SDS011;30569;51.252;9.830;2022-10-31T14:32:22;23.85;;;8.55;;
44832;SDS011;30569;51.252;9.830;2022-10-31T14:37:28;16.23;;;7.78;;
44832;SDS011;30569;51.252;9.830;2022-10-31T14:40:18;19.67;;;8.18;;
44832;SDS011;30569;51.252;9.830;2022-10-31T14:46:05;22.58;;;7.63;;
44832;SDS011;30569;51.252;9.830;2022-10-31T14:51:47;17.65;;;7.97;;
44832;SDS011;30569;51.252;9.830;2022-10-31T14:54:25;23.35;;;7.68;;
44832;SDS011;30569;51.252;9.830;2022-10-31T14:56:56;24.80;;;7.85;;
44832;SDS011;30569;51.252;9.830;2022-10-31T14:59:27;15.57;;;7.38;;
44832;SDS011;30569;51.252;9.830;2022-10-31T15:01:57;12.00;;;7.22;;
44832;SDS011;30569;51.252;9.830;2022-10-31T15:04:27;23.35;;;7.30;;
44832;SDS011;30569;51.252;9.830;2022-10-31T15:09:37;19.70;;;8.18;;
44832;SDS011;30569;51.252;9.830;2022-10-31T15:14:53;26.13;;;8.93;;
44832;SDS011;30569;51.252;9.830;2022-10-31T15:17:20;19.40;;;9.00;;
44832;SDS011;30569;51.252;9.830;2022-10-31T15:19:47;20.92;;;8.30;;
44832;SDS011;30569;51.252;9.830;2022-10-31T15:22:16;17.13;;;7.75;;
44832;SDS011;30569;51.252;9.830;2022-10-31T15:24:44;17.13;;;7.30;;
44832;SDS011;30569;51.252;9.830;2022-10-31T15:27:11;15.18;;;7.20;;
44832;SDS011;30569;51.252;9.830;2022-10-31T15:29:50;18.85;;;7.57;;
44832;SDS011;30569;51.252;9.830;2022-10-31T15:32:24;21.58;;;7.45;;
44832;SDS011;30569;51.252;9.830;2022-10-31T15:34:52;15.70;;;7.80;;
44832;SDS011;30569;51.252;9.830;2022-10-31T15:37:19;17.60;;;8.25;;
44832;SDS011;30569;51.252;9.830;2022-10-31T15:39:49;19.33;;;7.20;;
44832;SDS011;30569;51.252;9.830;2022-10-31T15:42:20;20.23;;;7.72;;
44832;SDS011;30569;51.252;9.830;2022-10-31T15:44:53;22.52;;;7.53;;
44832;SDS011;30569;51.252;9.830;2022-10-31T15:47:21;15.60;;;8.82;;
44832;SDS011;30569;51.252;9.830;2022-10-31T15:49:53;21.23;;;7.68;;
44832;SDS011;30569;51.252;9.830;2022-10-31T15:52:31;15.88;;;7.50;;
44832;SDS011;30569;51.252;9.830;2022-10-31T15:57:39;16.35;;;7.65;;
44832;SDS011;30569;51.252;9.830;2022-10-31T16:05:46;22.08;;;9.02;;
44832;SDS011;30569;51.252;9.830;2022-10-31T16:10:58;20.23;;;9.65;;
44832;SDS011;30569;51.252;9.830;2022-10-31T16:14:04;34.40;;;21.38;;
44832;SDS011;30569;51.252;9.830;2022-10-31T16:17:12;17.75;;;9.20;;
44832;SDS011;30569;51.252;9.830;2022-10-31T16:19:56;15.10;;;8.20;;
44832;SDS011;30569;51.252;9.830;2022-10-31T16:22:31;16.10;;;8.75;;
44832;SDS011;30569;51.252;9.830;2022-10-31T16:25:03;20.20;;;9.73;;
44832;SDS011;30569;51.252;9.830;2022-10-31T16:30:24;18.70;;;9.70;;
44832;SDS011;30569;51.252;9.830;2022-10-31T16:32:53;20.40;;;8.80;;
44832;SDS011;30569;51.252;9.830;2022-10-31T16:35:25;20.00;;;8.85;;
44832;SDS011;30569;51.252;9.830;2022-10-31T16:37:59;15.57;;;7.50;;
44832;SDS011;30569;51.252;9.830;2022-10-31T16:40:24;16.02;;;8.07;;
44832;SDS011;30569;51.252;9.830;2022-10-31T16:42:51;19.90;;;8.80;;
44832;SDS011;30569;51.252;9.830;2022-10-31T16:45:27;17.42;;;7.10;;
44832;SDS011;30569;51.252;9.830;2022-10-31T16:47:54;13.85;;;7.05;;
44832;SDS011;30569;51.252;9.830;2022-10-31T16:52:53;12.35;;;6.28;;
44832;SDS011;30569;51.252;9.830;2022-10-31T16:55:20;13.18;;;6.55;;
44832;SDS011;30569;51.252;9.830;2022-10-31T16:57:47;16.17;;;6.90;;
44832;SDS011;30569;51.252;9.830;2022-10-31T17:00:23;13.80;;;7.22;;
44832;SDS011;30569;51.252;9.830;2022-10-31T17:02:51;16.95;;;7.53;;
44832;SDS011;30569;51.252;9.830;2022-10-31T17:05:19;18.55;;;9.10;;
44832;SDS011;30569;51.252;9.830;2022-10-31T17:07:46;27.67;;;13.07;;
44832;SDS011;30569;51.252;9.830;2022-10-31T17:10:13;22.02;;;12.15;;
44832;SDS011;30569;51.252;9.830;2022-10-31T17:12:40;17.40;;;9.55;;
44832;SDS011;30569;51.252;9.830;2022-10-31T17:15:19;16.23;;;8.57;;
44832;SDS011;30569;51.252;9.830;2022-10-31T17:17:47;16.65;;;7.80;;
44832;SDS011;30569;51.252;9.830;2022-10-31T17:20:27;17.20;;;8.45;;
44832;SDS011;30569;51.252;9.830;2022-10-31T17:22:54;12.65;;;7.55;;
44832;SDS011;30569;51.252;9.830;2022-10-31T17:25:22;12.15;;;6.80;;
44832;SDS011;30569;51.252;9.830;2022-10-31T17:27:49;12.85;;;8.70;;
44832;SDS011;30569;51.252;9.830;2022-10-31T17:30:15;17.60;;;8.88;;
44832;SDS011;30569;51.252;9.830;2022-10-31T17:32:43;17.95;;;10.23;;
44832;SDS011;30569;51.252;9.830;2022-10-31T17:35:09;19.10;;;10.50;;
44832;SDS011;30569;51.252;9.830;2022-10-31T17:37:35;18.17;;;9.45;;
44832;SDS011;30569;51.252;9.830;2022-10-31T17:40:01;16.10;;;8.63;;